createdAt,value
2022-10-05T00:02:33.726Z,9.89
2022-10-05T00:05:28.120Z,9.93
2022-10-05T00:08:20.932Z,8.95
2022-10-05T00:11:10.302Z,9.76
2022-10-05T00:13:59.669Z,9.70
2022-10-05T00:16:48.770Z,9.05
2022-10-05T00:19:40.071Z,8.94
2022-10-05T00:22:32.916Z,9.51
2022-10-05T00:25:23.605Z,9.50
2022-10-05T00:28:19.313Z,9.44
2022-10-05T00:31:16.222Z,9.44
2022-10-05T00:34:04.782Z,9.53
2022-10-05T00:36:53.322Z,9.42
2022-10-05T00:39:42.557Z,9.37
2022-10-05T00:42:45.042Z,9.30
2022-10-05T00:45:39.166Z,9.17
2022-10-05T00:48:34.790Z,9.39
2022-10-05T00:51:26.893Z,9.49
2022-10-05T00:54:27.687Z,9.44
2022-10-05T00:57:29.638Z,9.46
2022-10-05T01:00:26.088Z,9.42
2022-10-05T01:03:22.210Z,9.25
2022-10-05T01:06:22.690Z,9.31
2022-10-05T01:09:16.125Z,9.26
2022-10-05T01:12:10.841Z,9.27
2022-10-05T01:15:06.740Z,9.13
2022-10-05T01:18:04.321Z,8.89
2022-10-05T01:21:01.041Z,9.02
2022-10-05T01:24:21.431Z,8.83
2022-10-05T01:27:38.741Z,9.18
2022-10-05T01:30:27.560Z,9.10
2022-10-05T01:33:22.607Z,8.99
2022-10-05T01:36:16.715Z,8.82
2022-10-05T01:39:15.191Z,8.85
2022-10-05T01:42:13.453Z,8.78
2022-10-05T01:45:10.562Z,8.82
2022-10-05T01:48:15.054Z,8.84
2022-10-05T01:51:13.134Z,9.06
2022-10-05T01:54:11.879Z,8.35
2022-10-05T01:57:08.847Z,8.69
2022-10-05T02:00:07.926Z,8.85
2022-10-05T02:03:01.812Z,8.90
2022-10-05T02:05:54.493Z,8.77
2022-10-05T02:08:48.441Z,8.81
2022-10-05T02:11:40.620Z,7.63
2022-10-05T02:14:34.554Z,8.60
2022-10-05T02:17:28.869Z,8.75
2022-10-05T02:20:24.751Z,8.82
2022-10-05T02:23:19.369Z,8.75
2022-10-05T02:26:12.495Z,8.77
2022-10-05T02:29:05.606Z,8.63
2022-10-05T02:31:58.700Z,8.82
2022-10-05T02:34:48.812Z,8.75
2022-10-05T02:37:45.802Z,8.79
2022-10-05T02:40:42.986Z,8.80
2022-10-05T02:43:41.902Z,8.84
2022-10-05T02:46:37.990Z,8.80
2022-10-05T02:49:37.441Z,8.72
2022-10-05T02:52:34.171Z,8.31
2022-10-05T02:55:31.225Z,8.65
2022-10-05T02:58:24.211Z,8.64
2022-10-05T03:01:22.956Z,7.69
2022-10-05T03:04:22.586Z,6.42
2022-10-05T03:07:17.196Z,8.64
2022-10-05T03:10:13.395Z,8.56
2022-10-05T03:13:07.597Z,8.52
2022-10-05T03:16:11.681Z,8.38
2022-10-05T03:19:10.366Z,7.93
2022-10-05T03:22:05.942Z,8.22
2022-10-05T03:25:15.468Z,8.34
2022-10-05T03:28:15.645Z,8.07
2022-10-05T03:31:06.864Z,8.26
2022-10-05T03:34:00.912Z,7.99
2022-10-05T03:36:57.350Z,8.38
2022-10-05T03:39:54.333Z,8.16
2022-10-05T03:42:54.579Z,8.34
2022-10-05T03:45:56.117Z,8.18
2022-10-05T03:48:52.329Z,8.07
2022-10-05T03:51:44.979Z,8.04
2022-10-05T03:54:39.698Z,7.98
2022-10-05T03:57:32.911Z,7.96
2022-10-05T04:00:24.027Z,8.11
2022-10-05T04:03:20.297Z,8.11
2022-10-05T04:06:13.711Z,7.96
2022-10-05T04:09:07.022Z,7.87
2022-10-05T04:12:12.446Z,7.83
2022-10-05T04:15:04.513Z,8.01
2022-10-05T04:17:58.603Z,7.50
2022-10-05T04:20:52.643Z,7.99
2022-10-05T04:23:49.353Z,8.18
2022-10-05T04:26:46.934Z,8.21
2022-10-05T04:29:42.102Z,8.17
2022-10-05T04:32:37.471Z,8.03
2022-10-05T04:35:46.297Z,7.95
2022-10-05T04:38:52.224Z,8.04
2022-10-05T04:42:01.709Z,7.94
2022-10-05T04:45:04.502Z,7.98
2022-10-05T04:48:31.281Z,7.88
2022-10-05T04:51:33.889Z,8.01
2022-10-05T04:54:33.701Z,6.93
2022-10-05T04:57:29.331Z,8.06
2022-10-05T05:00:25.992Z,7.88
2022-10-05T05:03:33.415Z,7.81
2022-10-05T05:06:31.836Z,7.90
2022-10-05T05:09:54.232Z,7.87
2022-10-05T05:12:54.193Z,7.86
2022-10-05T05:15:49.939Z,7.68
2022-10-05T05:19:06.004Z,7.74
2022-10-05T05:22:03.002Z,8.00
2022-10-05T05:25:16.857Z,7.88
2022-10-05T05:28:18.540Z,8.06
2022-10-05T05:31:14.372Z,7.60
2022-10-05T05:34:12.464Z,8.21
2022-10-05T05:37:07.823Z,8.40
2022-10-05T05:40:07.688Z,8.29
2022-10-05T05:43:00.210Z,8.57
2022-10-05T05:45:58.111Z,8.55
2022-10-05T05:48:48.661Z,8.47
2022-10-05T05:51:44.431Z,7.83
2022-10-05T05:54:39.108Z,8.61
2022-10-05T05:57:32.334Z,8.72
2022-10-05T06:00:24.464Z,8.81
2022-10-05T06:03:18.088Z,9.02
2022-10-05T06:06:10.595Z,9.18
2022-10-05T06:09:03.311Z,9.51
2022-10-05T06:11:55.392Z,9.56
2022-10-05T06:14:49.953Z,9.13
2022-10-05T06:17:44.693Z,9.35
2022-10-05T06:20:40.910Z,10.06
2022-10-05T06:23:39.757Z,10.35
2022-10-05T06:26:41.526Z,10.20
2022-10-05T06:29:39.970Z,10.68
2022-10-05T06:32:34.692Z,10.87
2022-10-05T06:35:36.467Z,11.03
2022-10-05T06:38:49.646Z,11.25
2022-10-05T06:41:50.742Z,11.47
2022-10-05T06:44:49.964Z,11.62
2022-10-05T06:47:51.004Z,11.77
2022-10-05T06:50:43.921Z,11.90
2022-10-05T06:53:37.063Z,12.00
2022-10-05T06:56:29.551Z,11.98
2022-10-05T06:59:25.286Z,12.17
2022-10-05T07:02:22.963Z,12.29
2022-10-05T07:05:40.804Z,12.46
2022-10-05T07:08:40.904Z,12.56
2022-10-05T07:11:51.339Z,12.67
2022-10-05T07:14:57.302Z,12.74
2022-10-05T07:17:59.540Z,12.76
2022-10-05T07:20:55.211Z,12.87
2022-10-05T07:23:54.543Z,12.72
2022-10-05T07:26:47.329Z,13.02
2022-10-05T07:29:45.532Z,12.79
2022-10-05T07:32:37.880Z,12.88
2022-10-05T07:35:52.523Z,13.11
2022-10-05T07:38:47.211Z,13.11
2022-10-05T07:41:43.755Z,13.12
2022-10-05T07:44:38.677Z,13.23
2022-10-05T07:47:37.011Z,13.26
2022-10-05T07:50:31.283Z,13.30
2022-10-05T07:53:25.031Z,13.45
2022-10-05T07:56:23.112Z,13.54
2022-10-05T07:59:22.442Z,13.81
2022-10-05T08:02:23.838Z,13.76
2022-10-05T08:05:20.167Z,14.10
2022-10-05T08:08:24.653Z,13.88
2022-10-05T08:11:18.340Z,13.62
2022-10-05T08:14:16.804Z,13.77
2022-10-05T08:17:12.770Z,13.75
2022-10-05T08:20:15.637Z,14.11
2022-10-05T08:23:13.227Z,14.36
2022-10-05T08:26:18.015Z,14.51
2022-10-05T08:29:17.329Z,14.71
2022-10-05T08:32:13.531Z,14.78
2022-10-05T08:35:15.270Z,14.04
2022-10-05T08:38:09.354Z,15.02
2022-10-05T08:41:17.577Z,14.88
2022-10-05T08:44:48.230Z,14.71
2022-10-05T08:48:07.050Z,14.74
2022-10-05T08:51:29.557Z,15.04
2022-10-05T08:54:48.493Z,15.26
2022-10-05T08:58:02.491Z,15.43
2022-10-05T09:01:00.367Z,15.34
2022-10-05T09:04:08.853Z,15.55
2022-10-05T09:07:25.444Z,15.75
2022-10-05T09:11:02.662Z,15.98
2022-10-05T09:14:14.621Z,16.25
2022-10-05T09:17:33.799Z,16.37
2022-10-05T09:20:32.310Z,16.59
2022-10-05T09:23:38.406Z,16.76
2022-10-05T09:26:59.121Z,16.82
2022-10-05T09:30:18.648Z,17.10
2022-10-05T09:33:44.817Z,17.08
2022-10-05T09:37:11.825Z,17.09
2022-10-05T09:40:45.117Z,17.18
2022-10-05T09:44:11.733Z,17.29
2022-10-05T09:47:36.802Z,17.33
2022-10-05T09:51:03.991Z,17.40
2022-10-05T09:54:23.236Z,17.36
2022-10-05T09:57:46.391Z,17.21
2022-10-05T10:00:55.665Z,17.34
2022-10-05T10:04:18.620Z,17.34
2022-10-05T10:07:39.961Z,17.22
2022-10-05T10:10:55.121Z,17.04
2022-10-05T10:14:20.918Z,17.08
2022-10-05T10:17:38.198Z,17.19
2022-10-05T10:20:36.546Z,17.38
2022-10-05T10:23:55.015Z,17.55
2022-10-05T10:27:03.002Z,17.50
2022-10-05T10:30:21.885Z,17.55
2022-10-05T10:33:47.691Z,17.76
2022-10-05T10:36:58.477Z,17.87
2022-10-05T10:40:07.748Z,18.09
2022-10-05T10:43:28.323Z,18.31
2022-10-05T10:46:32.015Z,18.50
2022-10-05T10:49:36.866Z,18.45
2022-10-05T10:52:39.015Z,18.36
2022-10-05T10:55:36.534Z,18.49
2022-10-05T10:58:52.019Z,18.81
2022-10-05T11:01:52.584Z,19.02
2022-10-05T11:05:01.765Z,19.17
2022-10-05T11:08:20.313Z,19.29
2022-10-05T11:11:22.678Z,18.83
2022-10-05T11:14:37.004Z,19.64
2022-10-05T11:18:08.345Z,19.82
2022-10-05T11:21:32.009Z,19.91
2022-10-05T11:24:46.927Z,20.08
2022-10-05T11:27:51.378Z,20.17
2022-10-05T11:31:15.709Z,20.11
2022-10-05T11:34:24.157Z,20.27
2022-10-05T11:37:41.213Z,20.45
2022-10-05T11:41:08.941Z,20.55
2022-10-05T11:44:38.657Z,20.82
2022-10-05T11:47:33.102Z,21.02
2022-10-05T11:50:26.972Z,20.96
2022-10-05T11:53:22.192Z,21.00
2022-10-05T11:56:23.357Z,20.90
2022-10-05T11:59:18.983Z,20.76
2022-10-05T12:02:43.042Z,20.87
2022-10-05T12:05:41.941Z,20.81
2022-10-05T12:08:41.340Z,20.79
2022-10-05T12:12:03.911Z,20.90
2022-10-05T12:15:00.230Z,21.15
2022-10-05T12:17:56.007Z,21.33
2022-10-05T12:20:52.401Z,21.10
2022-10-05T12:23:46.593Z,20.93
2022-10-05T12:26:40.918Z,20.92
2022-10-05T12:29:35.422Z,20.96
2022-10-05T12:32:30.274Z,20.69
2022-10-05T12:35:43.842Z,20.43
2022-10-05T12:38:40.730Z,20.43
2022-10-05T12:41:34.217Z,20.58
2022-10-05T12:44:53.046Z,20.84
2022-10-05T12:47:54.033Z,20.75
2022-10-05T12:50:44.810Z,20.73
2022-10-05T12:53:48.765Z,20.83
2022-10-05T12:56:45.472Z,21.41
2022-10-05T12:59:42.093Z,21.90
2022-10-05T13:02:39.297Z,22.12
2022-10-05T13:05:37.431Z,22.03
2022-10-05T13:08:38.414Z,21.99
2022-10-05T13:11:37.385Z,22.13
2022-10-05T13:14:53.811Z,21.84
2022-10-05T13:17:51.444Z,21.06
2022-10-05T13:20:47.055Z,21.64
2022-10-05T13:23:51.722Z,21.71
2022-10-05T13:26:49.435Z,21.87
2022-10-05T13:29:43.230Z,21.52
2022-10-05T13:32:36.942Z,21.42
2022-10-05T13:35:45.312Z,20.82
2022-10-05T13:38:46.163Z,21.33
2022-10-05T13:41:44.035Z,21.28
2022-10-05T13:44:43.945Z,21.32
2022-10-05T13:47:39.171Z,21.18
2022-10-05T13:50:33.474Z,21.04
2022-10-05T13:53:30.305Z,20.94
2022-10-05T13:56:23.456Z,20.99
2022-10-05T13:59:24.311Z,21.28
2022-10-05T14:02:21.465Z,20.70
2022-10-05T14:05:18.980Z,21.42
2022-10-05T14:08:18.344Z,21.53
2022-10-05T14:11:22.494Z,22.15
2022-10-05T14:14:16.326Z,23.05
2022-10-05T14:17:14.531Z,23.41
2022-10-05T14:20:19.742Z,24.66
2022-10-05T14:23:18.524Z,24.31
2022-10-05T14:26:20.305Z,23.38
2022-10-05T14:29:19.566Z,22.41
2022-10-05T14:32:14.937Z,22.25
2022-10-05T14:35:17.111Z,22.06
2022-10-05T14:38:20.082Z,22.08
2022-10-05T14:41:19.661Z,21.84
2022-10-05T14:44:30.276Z,21.48
2022-10-05T14:47:23.904Z,21.35
2022-10-05T14:50:21.444Z,21.11
2022-10-05T14:53:17.952Z,20.91
2022-10-05T14:56:37.185Z,20.76
2022-10-05T14:59:54.284Z,20.63
2022-10-05T15:03:23.603Z,20.36
2022-10-05T15:06:22.543Z,19.93
2022-10-05T15:09:30.503Z,19.86
2022-10-05T15:12:26.999Z,19.49
2022-10-05T15:15:25.775Z,19.57
2022-10-05T15:18:29.669Z,19.50
2022-10-05T15:21:47.523Z,19.23
2022-10-05T15:24:43.788Z,19.06
2022-10-05T15:27:44.755Z,18.92
2022-10-05T15:30:37.747Z,18.77
2022-10-05T15:33:35.608Z,18.57
2022-10-05T15:36:32.523Z,18.37
2022-10-05T15:39:34.862Z,18.06
2022-10-05T15:42:31.691Z,17.88
2022-10-05T15:45:25.616Z,17.87
2022-10-05T15:48:21.373Z,17.70
2022-10-05T15:51:19.017Z,17.08
2022-10-05T15:54:36.715Z,17.55
2022-10-05T15:57:36.918Z,17.34
2022-10-05T16:00:27.321Z,17.23
2022-10-05T16:03:24.513Z,17.11
2022-10-05T16:06:42.503Z,16.90
2022-10-05T16:09:44.340Z,16.76
2022-10-05T16:12:45.663Z,16.64
2022-10-05T16:15:42.831Z,16.42
2022-10-05T16:18:45.831Z,16.41
2022-10-05T16:21:44.324Z,16.11
2022-10-05T16:24:58.987Z,16.11
2022-10-05T16:28:05.272Z,15.96
2022-10-05T16:31:01.215Z,15.98
2022-10-05T16:34:02.389Z,15.96
2022-10-05T16:36:59.916Z,15.67
2022-10-05T16:39:54.312Z,15.86
2022-10-05T16:42:56.860Z,15.72
2022-10-05T16:45:55.781Z,15.55
2022-10-05T16:48:56.435Z,15.54
2022-10-05T16:51:53.997Z,15.39
2022-10-05T16:54:48.229Z,15.48
2022-10-05T16:57:41.964Z,15.55
2022-10-05T17:00:42.102Z,15.01
2022-10-05T17:03:44.040Z,15.28
2022-10-05T17:06:48.190Z,14.98
2022-10-05T17:10:12.085Z,15.07
2022-10-05T17:13:07.318Z,14.68
2022-10-05T17:16:07.212Z,15.04
2022-10-05T17:19:19.441Z,14.97
2022-10-05T17:22:14.184Z,14.83
2022-10-05T17:25:11.143Z,14.85
2022-10-05T17:28:23.141Z,14.73
2022-10-05T17:31:18.685Z,14.77
2022-10-05T17:34:29.979Z,14.76
2022-10-05T17:37:35.744Z,14.72
2022-10-05T17:40:34.591Z,14.76
2022-10-05T17:43:25.803Z,14.70
2022-10-05T17:46:32.802Z,14.67
2022-10-05T17:49:47.663Z,14.74
2022-10-05T17:52:55.993Z,14.60
2022-10-05T17:55:47.604Z,14.11
2022-10-05T17:59:03.941Z,14.64
2022-10-05T18:02:18.489Z,14.03
2022-10-05T18:05:22.064Z,14.48
2022-10-05T18:08:38.464Z,14.48
2022-10-05T18:11:39.919Z,14.39
2022-10-05T18:14:50.743Z,14.35
2022-10-05T18:17:47.581Z,14.34
2022-10-05T18:20:37.572Z,14.22
2022-10-05T18:23:35.724Z,14.28
2022-10-05T18:26:38.661Z,14.21
2022-10-05T18:30:05.386Z,14.03
2022-10-05T18:33:32.511Z,14.15
2022-10-05T18:37:00.337Z,14.15
2022-10-05T18:40:04.905Z,13.86
2022-10-05T18:43:01.082Z,14.11
2022-10-05T18:46:05.283Z,14.10
2022-10-05T18:49:07.161Z,14.11
2022-10-05T18:52:08.115Z,14.09
2022-10-05T18:55:06.987Z,14.09
2022-10-05T18:58:26.449Z,14.03
2022-10-05T19:02:01.317Z,14.00
2022-10-05T19:05:42.464Z,13.91
2022-10-05T19:08:38.559Z,13.97
2022-10-05T19:11:40.676Z,13.91
2022-10-05T19:14:46.797Z,13.79
2022-10-05T19:18:03.474Z,13.90
2022-10-05T19:21:07.451Z,13.87
2022-10-05T19:24:43.467Z,11.66
2022-10-05T19:27:53.134Z,13.78
2022-10-05T19:31:15.172Z,13.65
2022-10-05T19:34:19.542Z,13.66
2022-10-05T19:37:17.066Z,13.71
2022-10-05T19:40:21.872Z,13.79
2022-10-05T19:43:40.031Z,13.69
2022-10-05T19:46:47.645Z,13.53
2022-10-05T19:49:38.857Z,13.49
2022-10-05T19:52:31.290Z,13.47
2022-10-05T19:55:32.903Z,13.60
2022-10-05T19:58:24.719Z,13.55
2022-10-05T20:01:24.509Z,13.53
2022-10-05T20:04:13.822Z,13.48
2022-10-05T20:07:03.545Z,13.42
2022-10-05T20:09:58.885Z,13.37
2022-10-05T20:13:01.111Z,13.05
2022-10-05T20:16:29.098Z,13.14
2022-10-05T20:19:55.414Z,13.31
2022-10-05T20:22:46.602Z,13.20
2022-10-05T20:25:40.560Z,13.28
2022-10-05T20:28:33.710Z,13.20
2022-10-05T20:31:22.346Z,13.11
2022-10-05T20:34:10.944Z,13.06
2022-10-05T20:36:59.534Z,13.02
2022-10-05T20:39:48.820Z,12.52
2022-10-05T20:42:38.011Z,12.99
2022-10-05T20:45:28.520Z,12.97
2022-10-05T20:48:17.644Z,12.74
2022-10-05T20:51:06.455Z,12.96
2022-10-05T20:53:55.522Z,12.90
2022-10-05T20:56:43.997Z,12.93
2022-10-05T20:59:33.451Z,12.82
2022-10-05T21:02:23.351Z,12.45
2022-10-05T21:05:12.057Z,12.54
2022-10-05T21:08:00.676Z,12.60
2022-10-05T21:10:49.523Z,12.53
2022-10-05T21:13:38.760Z,12.54
2022-10-05T21:16:29.881Z,12.53
2022-10-05T21:19:20.016Z,12.57
2022-10-05T21:22:09.813Z,12.57
2022-10-05T21:24:58.609Z,12.56
2022-10-05T21:27:48.781Z,12.56
2022-10-05T21:30:37.390Z,11.91
2022-10-05T21:33:26.304Z,12.51
2022-10-05T21:36:17.164Z,12.56
2022-10-05T21:39:05.857Z,12.60
2022-10-05T21:41:54.553Z,12.51
2022-10-05T21:44:43.024Z,12.43
2022-10-05T21:47:31.885Z,12.42
2022-10-05T21:50:20.584Z,12.37
2022-10-05T21:53:13.374Z,12.24
2022-10-05T21:56:05.643Z,12.32
2022-10-05T21:58:54.352Z,12.23
2022-10-05T22:01:42.984Z,12.07
2022-10-05T22:04:31.577Z,12.23
2022-10-05T22:07:21.360Z,12.08
2022-10-05T22:10:11.753Z,12.13
2022-10-05T22:13:04.383Z,11.82
2022-10-05T22:15:54.067Z,12.13
2022-10-05T22:18:43.500Z,12.14
2022-10-05T22:21:34.309Z,12.13
2022-10-05T22:24:23.173Z,12.08
2022-10-05T22:27:13.237Z,12.06
2022-10-05T22:30:03.213Z,12.09
2022-10-05T22:32:51.829Z,12.09
2022-10-05T22:35:41.144Z,11.66
2022-10-05T22:38:30.840Z,11.94
2022-10-05T22:41:19.643Z,12.04
2022-10-05T22:44:09.573Z,11.92
2022-10-05T22:46:58.163Z,11.83
2022-10-05T22:49:46.685Z,11.75
2022-10-05T22:52:35.191Z,11.74
2022-10-05T22:55:24.693Z,11.72
2022-10-05T22:58:13.217Z,11.74
2022-10-05T23:01:04.907Z,11.70
2022-10-05T23:03:53.986Z,11.68
2022-10-05T23:06:42.940Z,11.52
2022-10-05T23:09:31.432Z,11.75
2022-10-05T23:12:19.886Z,11.74
2022-10-05T23:15:09.882Z,11.59
2022-10-05T23:17:59.840Z,11.59
2022-10-05T23:20:54.358Z,11.42
2022-10-05T23:23:47.421Z,11.47
2022-10-05T23:26:35.995Z,11.50
2022-10-05T23:29:24.495Z,11.55
2022-10-05T23:32:13.064Z,11.65
2022-10-05T23:35:02.990Z,11.46
2022-10-05T23:37:51.544Z,11.41
2022-10-05T23:40:40.017Z,11.42
2022-10-05T23:43:28.753Z,11.39
2022-10-05T23:46:17.789Z,11.26
2022-10-05T23:49:07.121Z,11.05
2022-10-05T23:51:57.061Z,11.23
2022-10-05T23:54:45.561Z,11.31
2022-10-05T23:57:34.074Z,11.28
